sensor_id;sensor_type;location;lat;lon;timestamp;P1;durP1;ratioP1;P2;durP2;ratioP2
54037;SDS011;39954;48.844;9.726;2023-07-02T00:00:17;28.55;;;7.40;;
54037;SDS011;39954;48.844;9.726;2023-07-02T00:01:19;38.88;;;8.40;;
54037;SDS011;39954;48.844;9.726;2023-07-02T00:02:24;73.22;;;10.25;;
54037;SDS011;39954;48.844;9.726;2023-07-02T00:03:26;44.38;;;8.95;;
54037;SDS011;39954;48.844;9.726;2023-07-02T00:04:31;80.30;;;10.23;;
54037;SDS011;39954;48.844;9.726;2023-07-02T00:05:34;36.95;;;7.18;;
54037;SDS011;39954;48.844;9.726;2023-07-02T00:06:38;29.00;;;7.35;;
54037;SDS011;39954;48.844;9.726;2023-07-02T00:07:42;54.22;;;8.20;;
54037;SDS011;39954;48.844;9.726;2023-07-02T00:08:46;60.05;;;8.90;;
54037;SDS011;39954;48.844;9.726;2023-07-02T00:09:51;66.80;;;8.70;;
54037;SDS011;39954;48.844;9.726;2023-07-02T00:10:56;70.55;;;9.02;;
54037;SDS011;39954;48.844;9.726;2023-07-02T00:11:58;41.80;;;7.57;;
54037;SDS011;39954;48.844;9.726;2023-07-02T00:13:03;47.83;;;8.23;;
54037;SDS011;39954;48.844;9.726;2023-07-02T00:14:05;48.75;;;8.20;;
54037;SDS011;39954;48.844;9.726;2023-07-02T00:15:10;38.35;;;7.72;;
54037;SDS011;39954;48.844;9.726;2023-07-02T00:16:12;29.35;;;8.02;;
54037;SDS011;39954;48.844;9.726;2023-07-02T00:17:17;50.83;;;8.82;;
54037;SDS011;39954;48.844;9.726;2023-07-02T00:18:19;42.28;;;9.20;;
54037;SDS011;39954;48.844;9.726;2023-07-02T00:19:24;65.90;;;9.38;;
54037;SDS011;39954;48.844;9.726;2023-07-02T00:20:27;54.45;;;9.23;;
54037;SDS011;39954;48.844;9.726;2023-07-02T00:21:36;92.55;;;11.70;;
54037;SDS011;39954;48.844;9.726;2023-07-02T00:22:38;46.45;;;9.35;;
54037;SDS011;39954;48.844;9.726;2023-07-02T00:23:43;70.32;;;10.75;;
54037;SDS011;39954;48.844;9.726;2023-07-02T00:24:45;143.13;;;15.75;;
54037;SDS011;39954;48.844;9.726;2023-07-02T00:25:54;84.55;;;12.32;;
54037;SDS011;39954;48.844;9.726;2023-07-02T00:26:57;73.57;;;11.75;;
54037;SDS011;39954;48.844;9.726;2023-07-02T00:28:01;66.55;;;11.02;;
54037;SDS011;39954;48.844;9.726;2023-07-02T00:29:04;72.65;;;11.52;;
54037;SDS011;39954;48.844;9.726;2023-07-02T00:30:10;76.40;;;11.65;;
54037;SDS011;39954;48.844;9.726;2023-07-02T00:31:13;74.90;;;11.55;;
54037;SDS011;39954;48.844;9.726;2023-07-02T00:32:18;95.15;;;12.55;;
54037;SDS011;39954;48.844;9.726;2023-07-02T00:33:20;54.47;;;10.82;;
54037;SDS011;39954;48.844;9.726;2023-07-02T00:34:25;84.15;;;12.75;;
54037;SDS011;39954;48.844;9.726;2023-07-02T00:35:28;77.47;;;12.07;;
54037;SDS011;39954;48.844;9.726;2023-07-02T00:36:32;54.92;;;11.55;;
54037;SDS011;39954;48.844;9.726;2023-07-02T00:37:35;72.85;;;12.88;;
54037;SDS011;39954;48.844;9.726;2023-07-02T00:38:40;65.70;;;12.45;;
54037;SDS011;39954;48.844;9.726;2023-07-02T00:39:43;109.93;;;14.68;;
54037;SDS011;39954;48.844;9.726;2023-07-02T00:40:48;112.28;;;15.55;;
54037;SDS011;39954;48.844;9.726;2023-07-02T00:41:53;115.82;;;15.40;;
54037;SDS011;39954;48.844;9.726;2023-07-02T00:42:58;104.80;;;15.23;;
54037;SDS011;39954;48.844;9.726;2023-07-02T00:44:00;100.43;;;14.80;;
54037;SDS011;39954;48.844;9.726;2023-07-02T00:45:05;117.70;;;16.95;;
54037;SDS011;39954;48.844;9.726;2023-07-02T00:46:09;73.78;;;13.70;;
54037;SDS011;39954;48.844;9.726;2023-07-02T00:47:19;68.40;;;14.45;;
54037;SDS011;39954;48.844;9.726;2023-07-02T00:48:21;75.68;;;14.27;;
54037;SDS011;39954;48.844;9.726;2023-07-02T00:49:26;98.35;;;16.05;;
54037;SDS011;39954;48.844;9.726;2023-07-02T00:50:28;71.07;;;15.27;;
54037;SDS011;39954;48.844;9.726;2023-07-02T00:51:33;50.75;;;14.80;;
54037;SDS011;39954;48.844;9.726;2023-07-02T00:52:35;66.63;;;14.95;;
54037;SDS011;39954;48.844;9.726;2023-07-02T00:53:40;64.63;;;15.15;;
54037;SDS011;39954;48.844;9.726;2023-07-02T00:54:42;145.15;;;20.35;;
54037;SDS011;39954;48.844;9.726;2023-07-02T00:55:47;77.65;;;15.20;;
54037;SDS011;39954;48.844;9.726;2023-07-02T00:56:49;112.25;;;18.65;;
54037;SDS011;39954;48.844;9.726;2023-07-02T00:57:57;160.90;;;21.50;;
54037;SDS011;39954;48.844;9.726;2023-07-02T00:58:59;63.03;;;16.15;;
54037;SDS011;39954;48.844;9.726;2023-07-02T01:00:04;73.38;;;15.65;;
54037;SDS011;39954;48.844;9.726;2023-07-02T01:01:08;92.95;;;16.35;;
54037;SDS011;39954;48.844;9.726;2023-07-02T01:02:13;45.30;;;13.88;;
54037;SDS011;39954;48.844;9.726;2023-07-02T01:03:15;92.22;;;16.92;;
54037;SDS011;39954;48.844;9.726;2023-07-02T01:04:20;51.28;;;15.10;;
54037;SDS011;39954;48.844;9.726;2023-07-02T01:05:29;66.07;;;11.85;;
54037;SDS011;39954;48.844;9.726;2023-07-02T01:06:37;40.67;;;13.95;;
54037;SDS011;39954;48.844;9.726;2023-07-02T01:07:43;67.60;;;15.65;;
54037;SDS011;39954;48.844;9.726;2023-07-02T01:08:48;110.47;;;18.00;;
54037;SDS011;39954;48.844;9.726;2023-07-02T01:09:50;98.85;;;17.92;;
54037;SDS011;39954;48.844;9.726;2023-07-02T01:10:55;107.05;;;19.08;;
54037;SDS011;39954;48.844;9.726;2023-07-02T01:11:59;70.82;;;15.32;;
54037;SDS011;39954;48.844;9.726;2023-07-02T01:13:10;61.83;;;15.63;;
54037;SDS011;39954;48.844;9.726;2023-07-02T01:14:16;66.95;;;16.00;;
54037;SDS011;39954;48.844;9.726;2023-07-02T01:15:25;78.00;;;16.45;;
54037;SDS011;39954;48.844;9.726;2023-07-02T01:16:29;81.28;;;16.80;;
54037;SDS011;39954;48.844;9.726;2023-07-02T01:17:35;109.90;;;18.60;;
54037;SDS011;39954;48.844;9.726;2023-07-02T01:18:43;202.35;;;20.73;;
54037;SDS011;39954;48.844;9.726;2023-07-02T01:19:52;132.82;;;19.45;;
54037;SDS011;39954;48.844;9.726;2023-07-02T01:21:00;71.28;;;15.48;;
54037;SDS011;39954;48.844;9.726;2023-07-02T01:22:07;79.93;;;16.58;;
54037;SDS011;39954;48.844;9.726;2023-07-02T01:23:10;64.63;;;16.05;;
54037;SDS011;39954;48.844;9.726;2023-07-02T01:24:16;114.60;;;18.95;;
54037;SDS011;39954;48.844;9.726;2023-07-02T01:25:19;63.58;;;16.77;;
54037;SDS011;39954;48.844;9.726;2023-07-02T01:26:27;63.70;;;15.98;;
54037;SDS011;39954;48.844;9.726;2023-07-02T01:27:31;68.10;;;16.88;;
54037;SDS011;39954;48.844;9.726;2023-07-02T01:28:37;74.85;;;16.92;;
54037;SDS011;39954;48.844;9.726;2023-07-02T01:29:39;64.93;;;17.05;;
54037;SDS011;39954;48.844;9.726;2023-07-02T01:30:46;130.95;;;20.58;;
54037;SDS011;39954;48.844;9.726;2023-07-02T01:31:49;145.05;;;20.45;;
54037;SDS011;39954;48.844;9.726;2023-07-02T01:32:53;75.47;;;17.52;;
54037;SDS011;39954;48.844;9.726;2023-07-02T01:33:56;97.88;;;19.20;;
54037;SDS011;39954;48.844;9.726;2023-07-02T01:35:03;85.47;;;18.73;;
54037;SDS011;39954;48.844;9.726;2023-07-02T01:36:06;68.63;;;17.88;;
54037;SDS011;39954;48.844;9.726;2023-07-02T01:37:11;67.82;;;18.13;;
54037;SDS011;39954;48.844;9.726;2023-07-02T01:38:13;64.80;;;17.48;;
54037;SDS011;39954;48.844;9.726;2023-07-02T01:39:18;92.47;;;19.80;;
54037;SDS011;39954;48.844;9.726;2023-07-02T01:40:20;72.25;;;17.73;;
54037;SDS011;39954;48.844;9.726;2023-07-02T01:41:25;201.55;;;26.05;;
54037;SDS011;39954;48.844;9.726;2023-07-02T01:42:27;69.38;;;15.07;;
54037;SDS011;39954;48.844;9.726;2023-07-02T01:43:32;82.82;;;18.85;;
54037;SDS011;39954;48.844;9.726;2023-07-02T01:44:34;74.82;;;19.23;;
54037;SDS011;39954;48.844;9.726;2023-07-02T01:45:40;75.47;;;19.15;;
54037;SDS011;39954;48.844;9.726;2023-07-02T01:46:43;101.28;;;21.55;;
54037;SDS011;39954;48.844;9.726;2023-07-02T01:47:50;110.82;;;21.75;;
54037;SDS011;39954;48.844;9.726;2023-07-02T01:48:52;121.65;;;21.73;;
54037;SDS011;39954;48.844;9.726;2023-07-02T01:49:57;121.10;;;21.50;;
54037;SDS011;39954;48.844;9.726;2023-07-02T01:51:02;94.32;;;20.70;;
54037;SDS011;39954;48.844;9.726;2023-07-02T01:52:07;92.63;;;20.13;;
54037;SDS011;39954;48.844;9.726;2023-07-02T01:53:09;86.53;;;20.35;;
54037;SDS011;39954;48.844;9.726;2023-07-02T01:54:14;127.78;;;23.30;;
54037;SDS011;39954;48.844;9.726;2023-07-02T01:55:16;93.90;;;21.75;;
54037;SDS011;39954;48.844;9.726;2023-07-02T01:56:21;87.82;;;21.27;;
54037;SDS011;39954;48.844;9.726;2023-07-02T01:57:23;122.72;;;23.83;;
54037;SDS011;39954;48.844;9.726;2023-07-02T01:58:28;120.13;;;22.83;;
54037;SDS011;39954;48.844;9.726;2023-07-02T01:59:30;94.10;;;22.52;;
54037;SDS011;39954;48.844;9.726;2023-07-02T02:00:35;121.20;;;23.15;;
54037;SDS011;39954;48.844;9.726;2023-07-02T02:01:37;104.13;;;22.38;;
54037;SDS011;39954;48.844;9.726;2023-07-02T02:02:43;119.78;;;23.60;;
54037;SDS011;39954;48.844;9.726;2023-07-02T02:03:45;123.22;;;23.00;;
54037;SDS011;39954;48.844;9.726;2023-07-02T02:04:50;130.88;;;24.08;;
54037;SDS011;39954;48.844;9.726;2023-07-02T02:05:52;132.73;;;23.90;;
54037;SDS011;39954;48.844;9.726;2023-07-02T02:07:00;133.70;;;24.13;;
54037;SDS011;39954;48.844;9.726;2023-07-02T02:08:02;99.47;;;21.77;;
54037;SDS011;39954;48.844;9.726;2023-07-02T02:09:07;106.10;;;22.52;;
54037;SDS011;39954;48.844;9.726;2023-07-02T02:10:10;111.13;;;22.95;;
54037;SDS011;39954;48.844;9.726;2023-07-02T02:11:16;103.25;;;21.95;;
54037;SDS011;39954;48.844;9.726;2023-07-02T02:12:18;271.40;;;31.30;;
54037;SDS011;39954;48.844;9.726;2023-07-02T02:13:23;237.88;;;26.27;;
54037;SDS011;39954;48.844;9.726;2023-07-02T02:14:25;145.55;;;23.88;;
54037;SDS011;39954;48.844;9.726;2023-07-02T02:15:30;141.73;;;23.63;;
54037;SDS011;39954;48.844;9.726;2023-07-02T02:16:32;116.68;;;22.25;;
54037;SDS011;39954;48.844;9.726;2023-07-02T02:17:38;106.45;;;21.42;;
54037;SDS011;39954;48.844;9.726;2023-07-02T02:18:40;99.65;;;20.52;;
54037;SDS011;39954;48.844;9.726;2023-07-02T02:19:45;118.60;;;21.65;;
54037;SDS011;39954;48.844;9.726;2023-07-02T02:20:47;119.70;;;21.15;;
54037;SDS011;39954;48.844;9.726;2023-07-02T02:21:52;137.07;;;22.00;;
54037;SDS011;39954;48.844;9.726;2023-07-02T02:22:56;129.90;;;22.35;;
54037;SDS011;39954;48.844;9.726;2023-07-02T02:24:01;76.50;;;18.25;;
54037;SDS011;39954;48.844;9.726;2023-07-02T02:25:04;112.47;;;18.92;;
54037;SDS011;39954;48.844;9.726;2023-07-02T02:26:09;54.08;;;15.18;;
54037;SDS011;39954;48.844;9.726;2023-07-02T02:27:11;64.97;;;17.05;;
54037;SDS011;39954;48.844;9.726;2023-07-02T02:28:16;64.88;;;16.15;;
54037;SDS011;39954;48.844;9.726;2023-07-02T02:29:18;79.57;;;17.33;;
54037;SDS011;39954;48.844;9.726;2023-07-02T02:30:23;84.05;;;17.40;;
54037;SDS011;39954;48.844;9.726;2023-07-02T02:31:25;71.72;;;16.23;;
54037;SDS011;39954;48.844;9.726;2023-07-02T02:32:30;78.38;;;16.27;;
54037;SDS011;39954;48.844;9.726;2023-07-02T02:33:32;83.97;;;16.60;;
54037;SDS011;39954;48.844;9.726;2023-07-02T02:34:37;51.90;;;15.23;;
54037;SDS011;39954;48.844;9.726;2023-07-02T02:35:39;45.28;;;15.20;;
54037;SDS011;39954;48.844;9.726;2023-07-02T02:36:44;76.55;;;13.38;;
54037;SDS011;39954;48.844;9.726;2023-07-02T02:37:46;80.38;;;17.15;;
54037;SDS011;39954;48.844;9.726;2023-07-02T02:38:53;91.80;;;16.52;;
54037;SDS011;39954;48.844;9.726;2023-07-02T02:39:56;88.38;;;17.02;;
54037;SDS011;39954;48.844;9.726;2023-07-02T02:41:01;44.75;;;10.95;;
54037;SDS011;39954;48.844;9.726;2023-07-02T02:42:04;52.60;;;14.75;;
54037;SDS011;39954;48.844;9.726;2023-07-02T02:43:09;54.35;;;15.05;;
54037;SDS011;39954;48.844;9.726;2023-07-02T02:44:11;45.67;;;14.55;;
54037;SDS011;39954;48.844;9.726;2023-07-02T02:45:16;64.47;;;15.50;;
54037;SDS011;39954;48.844;9.726;2023-07-02T02:46:19;94.03;;;17.77;;
54037;SDS011;39954;48.844;9.726;2023-07-02T02:47:25;88.43;;;16.88;;
54037;SDS011;39954;48.844;9.726;2023-07-02T02:48:27;61.08;;;16.40;;
54037;SDS011;39954;48.844;9.726;2023-07-02T02:49:32;57.63;;;15.05;;
54037;SDS011;39954;48.844;9.726;2023-07-02T02:50:35;60.88;;;15.20;;
54037;SDS011;39954;48.844;9.726;2023-07-02T02:51:42;63.28;;;15.57;;
54037;SDS011;39954;48.844;9.726;2023-07-02T02:52:44;75.20;;;16.48;;
54037;SDS011;39954;48.844;9.726;2023-07-02T02:53:49;89.43;;;17.63;;
54037;SDS011;39954;48.844;9.726;2023-07-02T02:54:54;94.97;;;17.88;;
54037;SDS011;39954;48.844;9.726;2023-07-02T02:55:59;92.28;;;16.85;;
54037;SDS011;39954;48.844;9.726;2023-07-02T02:57:01;67.65;;;16.02;;
54037;SDS011;39954;48.844;9.726;2023-07-02T02:58:06;57.70;;;15.82;;
54037;SDS011;39954;48.844;9.726;2023-07-02T02:59:08;61.20;;;16.15;;
54037;SDS011;39954;48.844;9.726;2023-07-02T03:00:13;53.70;;;15.50;;
54037;SDS011;39954;48.844;9.726;2023-07-02T03:01:15;62.42;;;15.68;;
54037;SDS011;39954;48.844;9.726;2023-07-02T03:02:20;54.42;;;15.98;;
54037;SDS011;39954;48.844;9.726;2023-07-02T03:03:22;56.40;;;15.63;;
54037;SDS011;39954;48.844;9.726;2023-07-02T03:04:28;61.42;;;16.38;;
54037;SDS011;39954;48.844;9.726;2023-07-02T03:05:30;65.85;;;16.48;;
54037;SDS011;39954;48.844;9.726;2023-07-02T03:06:35;73.53;;;17.67;;
54037;SDS011;39954;48.844;9.726;2023-07-02T03:07:37;63.95;;;16.55;;
54037;SDS011;39954;48.844;9.726;2023-07-02T03:08:42;71.65;;;17.65;;
54037;SDS011;39954;48.844;9.726;2023-07-02T03:09:44;100.53;;;18.23;;
54037;SDS011;39954;48.844;9.726;2023-07-02T03:10:52;67.28;;;17.67;;
54037;SDS011;39954;48.844;9.726;2023-07-02T03:11:54;94.65;;;18.40;;
54037;SDS011;39954;48.844;9.726;2023-07-02T03:12:58;105.32;;;18.98;;
54037;SDS011;39954;48.844;9.726;2023-07-02T03:14:01;61.50;;;16.00;;
54037;SDS011;39954;48.844;9.726;2023-07-02T03:15:06;72.03;;;16.35;;
54037;SDS011;39954;48.844;9.726;2023-07-02T03:16:09;53.08;;;15.60;;
54037;SDS011;39954;48.844;9.726;2023-07-02T03:17:14;56.05;;;15.95;;
54037;SDS011;39954;48.844;9.726;2023-07-02T03:18:16;79.00;;;16.70;;
54037;SDS011;39954;48.844;9.726;2023-07-02T03:19:21;76.00;;;16.67;;
54037;SDS011;39954;48.844;9.726;2023-07-02T03:20:23;118.45;;;18.83;;
54037;SDS011;39954;48.844;9.726;2023-07-02T03:21:28;61.67;;;15.05;;
54037;SDS011;39954;48.844;9.726;2023-07-02T03:22:31;51.28;;;14.45;;
54037;SDS011;39954;48.844;9.726;2023-07-02T03:23:36;77.00;;;15.10;;
54037;SDS011;39954;48.844;9.726;2023-07-02T03:24:38;64.88;;;15.50;;
54037;SDS011;39954;48.844;9.726;2023-07-02T03:25:43;71.78;;;16.02;;
54037;SDS011;39954;48.844;9.726;2023-07-02T03:26:47;123.07;;;17.60;;
54037;SDS011;39954;48.844;9.726;2023-07-02T03:27:52;82.70;;;15.60;;
54037;SDS011;39954;48.844;9.726;2023-07-02T03:28:54;120.07;;;18.13;;
54037;SDS011;39954;48.844;9.726;2023-07-02T03:29:59;132.43;;;18.25;;
54037;SDS011;39954;48.844;9.726;2023-07-02T03:31:01;62.05;;;15.38;;
54037;SDS011;39954;48.844;9.726;2023-07-02T03:32:07;86.63;;;15.95;;
54037;SDS011;39954;48.844;9.726;2023-07-02T03:33:10;86.68;;;16.10;;
54037;SDS011;39954;48.844;9.726;2023-07-02T03:34:14;103.22;;;16.38;;
54037;SDS011;39954;48.844;9.726;2023-07-02T03:35:17;98.65;;;15.88;;
54037;SDS011;39954;48.844;9.726;2023-07-02T03:36:21;141.95;;;19.17;;
54037;SDS011;39954;48.844;9.726;2023-07-02T03:37:26;134.55;;;18.13;;
54037;SDS011;39954;48.844;9.726;2023-07-02T03:38:28;102.28;;;15.20;;
54037;SDS011;39954;48.844;9.726;2023-07-02T03:39:33;140.80;;;17.90;;
54037;SDS011;39954;48.844;9.726;2023-07-02T03:40:35;94.25;;;14.80;;
54037;SDS011;39954;48.844;9.726;2023-07-02T03:41:41;99.93;;;15.55;;
54037;SDS011;39954;48.844;9.726;2023-07-02T03:42:46;90.53;;;14.98;;
54037;SDS011;39954;48.844;9.726;2023-07-02T03:43:51;123.35;;;17.15;;
54037;SDS011;39954;48.844;9.726;2023-07-02T03:44:53;137.70;;;18.25;;
54037;SDS011;39954;48.844;9.726;2023-07-02T03:45:58;110.43;;;15.48;;
54037;SDS011;39954;48.844;9.726;2023-07-02T03:47:00;136.48;;;17.27;;
54037;SDS011;39954;48.844;9.726;2023-07-02T03:48:05;87.88;;;14.35;;
54037;SDS011;39954;48.844;9.726;2023-07-02T03:49:07;93.13;;;14.35;;
54037;SDS011;39954;48.844;9.726;2023-07-02T03:50:12;65.10;;;13.27;;
54037;SDS011;39954;48.844;9.726;2023-07-02T03:51:14;72.55;;;12.23;;
54037;SDS011;39954;48.844;9.726;2023-07-02T03:52:19;72.85;;;12.65;;
54037;SDS011;39954;48.844;9.726;2023-07-02T03:53:21;72.97;;;12.80;;
54037;SDS011;39954;48.844;9.726;2023-07-02T03:54:26;65.07;;;11.98;;
54037;SDS011;39954;48.844;9.726;2023-07-02T03:55:28;70.10;;;11.93;;
54037;SDS011;39954;48.844;9.726;2023-07-02T03:56:33;64.97;;;11.10;;
54037;SDS011;39954;48.844;9.726;2023-07-02T03:57:35;67.50;;;11.63;;
54037;SDS011;39954;48.844;9.726;2023-07-02T03:58:42;72.28;;;11.80;;
54037;SDS011;39954;48.844;9.726;2023-07-02T03:59:45;85.60;;;12.43;;
54037;SDS011;39954;48.844;9.726;2023-07-02T04:00:50;76.13;;;11.68;;
54037;SDS011;39954;48.844;9.726;2023-07-02T04:01:52;91.55;;;13.38;;
54037;SDS011;39954;48.844;9.726;2023-07-02T04:02:57;78.55;;;12.70;;
54037;SDS011;39954;48.844;9.726;2023-07-02T04:04:00;91.90;;;12.90;;
54037;SDS011;39954;48.844;9.726;2023-07-02T04:05:05;47.92;;;10.10;;
54037;SDS011;39954;48.844;9.726;2023-07-02T04:06:07;38.42;;;9.55;;
54037;SDS011;39954;48.844;9.726;2023-07-02T04:07:12;38.63;;;9.20;;
54037;SDS011;39954;48.844;9.726;2023-07-02T04:08:14;76.30;;;11.30;;
54037;SDS011;39954;48.844;9.726;2023-07-02T04:09:19;68.88;;;10.10;;
54037;SDS011;39954;48.844;9.726;2023-07-02T04:10:21;35.55;;;7.95;;
54037;SDS011;39954;48.844;9.726;2023-07-02T04:11:27;84.05;;;11.80;;
54037;SDS011;39954;48.844;9.726;2023-07-02T04:12:30;36.22;;;8.82;;
54037;SDS011;39954;48.844;9.726;2023-07-02T04:13:35;54.15;;;10.05;;
54037;SDS011;39954;48.844;9.726;2023-07-02T04:14:41;103.15;;;12.68;;
54037;SDS011;39954;48.844;9.726;2023-07-02T04:15:47;71.07;;;10.90;;
54037;SDS011;39954;48.844;9.726;2023-07-02T04:16:50;72.70;;;11.55;;
54037;SDS011;39954;48.844;9.726;2023-07-02T04:17:55;135.90;;;14.95;;
54037;SDS011;39954;48.844;9.726;2023-07-02T04:18:58;60.85;;;10.95;;
54037;SDS011;39954;48.844;9.726;2023-07-02T04:20:04;53.08;;;10.55;;
54037;SDS011;39954;48.844;9.726;2023-07-02T04:21:09;33.30;;;10.45;;
54037;SDS011;39954;48.844;9.726;2023-07-02T04:22:15;44.85;;;10.98;;
54037;SDS011;39954;48.844;9.726;2023-07-02T04:23:18;99.10;;;13.63;;
54037;SDS011;39954;48.844;9.726;2023-07-02T04:24:24;51.92;;;10.93;;
54037;SDS011;39954;48.844;9.726;2023-07-02T04:25:28;42.22;;;11.30;;
54037;SDS011;39954;48.844;9.726;2023-07-02T04:26:53;143.68;;;16.55;;
54037;SDS011;39954;48.844;9.726;2023-07-02T04:28:16;46.05;;;11.73;;
54037;SDS011;39954;48.844;9.726;2023-07-02T04:29:21;46.63;;;12.20;;
54037;SDS011;39954;48.844;9.726;2023-07-02T04:30:27;52.08;;;13.23;;
54037;SDS011;39954;48.844;9.726;2023-07-02T04:31:32;67.45;;;14.15;;
54037;SDS011;39954;48.844;9.726;2023-07-02T04:32:35;52.13;;;13.23;;
54037;SDS011;39954;48.844;9.726;2023-07-02T04:33:41;58.47;;;13.98;;
54037;SDS011;39954;48.844;9.726;2023-07-02T04:34:44;85.55;;;15.32;;
54037;SDS011;39954;48.844;9.726;2023-07-02T04:35:49;78.13;;;15.75;;
54037;SDS011;39954;48.844;9.726;2023-07-02T04:36:52;92.47;;;17.50;;
54037;SDS011;39954;48.844;9.726;2023-07-02T04:37:58;117.80;;;18.38;;
54037;SDS011;39954;48.844;9.726;2023-07-02T04:39:01;98.05;;;16.42;;
54037;SDS011;39954;48.844;9.726;2023-07-02T04:40:07;47.30;;;13.27;;
54037;SDS011;39954;48.844;9.726;2023-07-02T04:41:11;49.95;;;14.35;;
54037;SDS011;39954;48.844;9.726;2023-07-02T04:42:17;51.35;;;14.70;;
54037;SDS011;39954;48.844;9.726;2023-07-02T04:43:20;48.63;;;14.35;;
54037;SDS011;39954;48.844;9.726;2023-07-02T04:44:25;55.47;;;14.38;;
54037;SDS011;39954;48.844;9.726;2023-07-02T04:45:33;59.63;;;14.25;;
54037;SDS011;39954;48.844;9.726;2023-07-02T04:46:39;91.68;;;16.48;;
54037;SDS011;39954;48.844;9.726;2023-07-02T04:47:42;69.55;;;15.52;;
54037;SDS011;39954;48.844;9.726;2023-07-02T04:48:48;100.50;;;17.10;;
54037;SDS011;39954;48.844;9.726;2023-07-02T04:49:51;159.00;;;20.85;;
54037;SDS011;39954;48.844;9.726;2023-07-02T04:50:57;147.50;;;19.88;;
54037;SDS011;39954;48.844;9.726;2023-07-02T04:51:59;111.72;;;18.15;;
54037;SDS011;39954;48.844;9.726;2023-07-02T04:53:05;134.32;;;19.52;;
54037;SDS011;39954;48.844;9.726;2023-07-02T04:54:08;112.43;;;17.13;;
54037;SDS011;39954;48.844;9.726;2023-07-02T04:55:13;100.07;;;16.90;;
54037;SDS011;39954;48.844;9.726;2023-07-02T04:56:16;136.18;;;19.65;;
54037;SDS011;39954;48.844;9.726;2023-07-02T04:57:21;111.00;;;18.42;;
54037;SDS011;39954;48.844;9.726;2023-07-02T04:58:24;112.97;;;18.73;;
54037;SDS011;39954;48.844;9.726;2023-07-02T04:59:30;132.68;;;19.20;;
54037;SDS011;39954;48.844;9.726;2023-07-02T05:00:35;129.07;;;19.42;;
54037;SDS011;39954;48.844;9.726;2023-07-02T05:01:41;91.13;;;17.33;;
54037;SDS011;39954;48.844;9.726;2023-07-02T05:02:44;94.28;;;17.42;;
54037;SDS011;39954;48.844;9.726;2023-07-02T05:03:50;161.32;;;21.02;;
54037;SDS011;39954;48.844;9.726;2023-07-02T05:04:53;109.35;;;18.92;;
54037;SDS011;39954;48.844;9.726;2023-07-02T05:05:58;186.75;;;24.08;;
54037;SDS011;39954;48.844;9.726;2023-07-02T05:07:01;90.70;;;17.27;;
54037;SDS011;39954;48.844;9.726;2023-07-02T05:08:06;67.75;;;16.85;;
54037;SDS011;39954;48.844;9.726;2023-07-02T05:09:09;71.35;;;15.68;;
54037;SDS011;39954;48.844;9.726;2023-07-02T05:10:15;40.88;;;14.88;;
54037;SDS011;39954;48.844;9.726;2023-07-02T05:11:17;64.68;;;15.70;;
54037;SDS011;39954;48.844;9.726;2023-07-02T05:12:23;55.75;;;14.88;;
54037;SDS011;39954;48.844;9.726;2023-07-02T05:13:26;54.65;;;15.50;;
54037;SDS011;39954;48.844;9.726;2023-07-02T05:14:31;64.50;;;16.15;;
54037;SDS011;39954;48.844;9.726;2023-07-02T05:15:36;46.70;;;14.05;;
54037;SDS011;39954;48.844;9.726;2023-07-02T05:16:43;52.65;;;14.50;;
54037;SDS011;39954;48.844;9.726;2023-07-02T05:17:46;72.22;;;16.23;;
54037;SDS011;39954;48.844;9.726;2023-07-02T05:18:52;90.93;;;17.45;;
54037;SDS011;39954;48.844;9.726;2023-07-02T05:19:54;86.47;;;16.75;;
54037;SDS011;39954;48.844;9.726;2023-07-02T05:21:00;94.95;;;17.48;;
54037;SDS011;39954;48.844;9.726;2023-07-02T05:22:03;81.03;;;16.40;;
54037;SDS011;39954;48.844;9.726;2023-07-02T05:23:09;52.95;;;14.25;;
54037;SDS011;39954;48.844;9.726;2023-07-02T05:24:12;58.28;;;16.38;;
54037;SDS011;39954;48.844;9.726;2023-07-02T05:25:17;89.30;;;16.73;;
54037;SDS011;39954;48.844;9.726;2023-07-02T05:26:20;66.10;;;15.02;;
54037;SDS011;39954;48.844;9.726;2023-07-02T05:27:25;59.47;;;14.85;;
54037;SDS011;39954;48.844;9.726;2023-07-02T05:28:28;100.55;;;16.83;;
54037;SDS011;39954;48.844;9.726;2023-07-02T05:29:33;70.43;;;14.98;;
54037;SDS011;39954;48.844;9.726;2023-07-02T05:30:39;76.15;;;15.68;;
54037;SDS011;39954;48.844;9.726;2023-07-02T05:31:44;90.60;;;15.70;;
54037;SDS011;39954;48.844;9.726;2023-07-02T05:32:48;94.75;;;17.15;;
54037;SDS011;39954;48.844;9.726;2023-07-02T05:33:53;97.45;;;17.08;;
54037;SDS011;39954;48.844;9.726;2023-07-02T05:34:56;114.25;;;17.60;;
54037;SDS011;39954;48.844;9.726;2023-07-02T05:36:02;106.40;;;18.13;;
54037;SDS011;39954;48.844;9.726;2023-07-02T05:37:05;60.38;;;15.63;;
54037;SDS011;39954;48.844;9.726;2023-07-02T05:38:11;83.85;;;16.65;;
54037;SDS011;39954;48.844;9.726;2023-07-02T05:39:13;51.95;;;14.60;;
54037;SDS011;39954;48.844;9.726;2023-07-02T05:40:19;151.40;;;20.58;;
54037;SDS011;39954;48.844;9.726;2023-07-02T05:41:22;85.30;;;15.93;;
54037;SDS011;39954;48.844;9.726;2023-07-02T05:42:32;99.75;;;16.98;;
54037;SDS011;39954;48.844;9.726;2023-07-02T05:43:35;204.57;;;22.85;;
54037;SDS011;39954;48.844;9.726;2023-07-02T05:44:40;93.68;;;16.00;;
54037;SDS011;39954;48.844;9.726;2023-07-02T05:45:46;83.78;;;15.48;;
54037;SDS011;39954;48.844;9.726;2023-07-02T05:46:51;131.30;;;18.23;;
54037;SDS011;39954;48.844;9.726;2023-07-02T05:47:54;144.43;;;17.23;;
54037;SDS011;39954;48.844;9.726;2023-07-02T05:49:00;113.40;;;16.42;;
54037;SDS011;39954;48.844;9.726;2023-07-02T05:50:03;90.35;;;14.07;;
54037;SDS011;39954;48.844;9.726;2023-07-02T05:51:09;54.45;;;12.45;;
54037;SDS011;39954;48.844;9.726;2023-07-02T05:52:12;71.40;;;14.68;;
54037;SDS011;39954;48.844;9.726;2023-07-02T05:53:18;94.90;;;14.25;;
54037;SDS011;39954;48.844;9.726;2023-07-02T05:54:20;63.05;;;13.80;;
54037;SDS011;39954;48.844;9.726;2023-07-02T05:55:26;57.72;;;13.15;;
54037;SDS011;39954;48.844;9.726;2023-07-02T05:56:29;112.05;;;16.38;;
54037;SDS011;39954;48.844;9.726;2023-07-02T05:57:34;58.47;;;14.23;;
54037;SDS011;39954;48.844;9.726;2023-07-02T05:58:37;80.15;;;15.07;;
54037;SDS011;39954;48.844;9.726;2023-07-02T06:00:56;120.00;;;16.85;;
54037;SDS011;39954;48.844;9.726;2023-07-02T06:01:59;102.75;;;15.27;;
54037;SDS011;39954;48.844;9.726;2023-07-02T06:03:05;76.28;;;13.57;;
54037;SDS011;39954;48.844;9.726;2023-07-02T06:04:07;60.17;;;12.65;;
54037;SDS011;39954;48.844;9.726;2023-07-02T06:05:13;47.17;;;12.30;;
54037;SDS011;39954;48.844;9.726;2023-07-02T06:06:15;119.35;;;15.60;;
54037;SDS011;39954;48.844;9.726;2023-07-02T06:07:21;52.03;;;11.95;;
54037;SDS011;39954;48.844;9.726;2023-07-02T06:08:23;62.63;;;13.07;;
54037;SDS011;39954;48.844;9.726;2023-07-02T06:09:28;34.00;;;10.38;;
54037;SDS011;39954;48.844;9.726;2023-07-02T06:10:31;46.00;;;11.70;;
54037;SDS011;39954;48.844;9.726;2023-07-02T06:11:36;88.55;;;13.27;;
54037;SDS011;39954;48.844;9.726;2023-07-02T06:12:39;37.45;;;11.02;;
54037;SDS011;39954;48.844;9.726;2023-07-02T06:13:45;42.47;;;11.77;;
54037;SDS011;39954;48.844;9.726;2023-07-02T06:14:47;135.55;;;16.75;;
54037;SDS011;39954;48.844;9.726;2023-07-02T06:15:52;69.78;;;12.68;;